sensor_id;sensor_type;location;lat;lon;timestamp;P1;durP1;ratioP1;P2;durP2;ratioP2
70920;SDS011;58572;48.110;19.838;2022-08-21T12:06:51;14.88;;;10.02;;
70920;SDS011;58572;48.110;19.838;2022-08-21T12:09:34;15.07;;;10.43;;
70920;SDS011;58572;48.110;19.838;2022-08-21T12:12:04;16.42;;;9.57;;
70920;SDS011;58572;48.110;19.838;2022-08-21T12:14:36;17.58;;;10.73;;
70920;SDS011;58572;48.110;19.838;2022-08-21T12:17:08;14.95;;;9.10;;
70920;SDS011;58572;48.110;19.838;2022-08-21T12:19:44;18.67;;;11.07;;
70920;SDS011;58572;48.110;19.838;2022-08-21T12:23:45;14.80;;;5.97;;
70920;SDS011;58572;48.110;19.838;2022-08-21T13:06:42;11.07;;;3.63;;
70920;SDS011;58572;48.110;19.838;2022-08-21T13:09:12;10.80;;;4.13;;
70920;SDS011;58572;48.110;19.838;2022-08-21T13:11:42;6.90;;;3.45;;
70920;SDS011;58572;48.110;19.838;2022-08-21T13:14:17;7.32;;;4.18;;
70920;SDS011;58572;48.110;19.838;2022-08-21T13:16:52;9.60;;;3.55;;
70920;SDS011;58572;48.110;19.838;2022-08-21T13:19:21;7.00;;;3.80;;
70920;SDS011;58572;48.110;19.838;2022-08-21T13:21:50;9.48;;;5.45;;
70920;SDS011;58572;48.110;19.838;2022-08-21T13:24:19;7.97;;;4.60;;
70920;SDS011;58572;48.110;19.838;2022-08-21T13:26:52;12.38;;;5.47;;
70920;SDS011;58572;48.110;19.838;2022-08-21T13:29:21;11.45;;;5.78;;
70920;SDS011;58572;48.110;19.838;2022-08-21T13:31:50;10.23;;;4.10;;
70920;SDS011;58572;48.110;19.838;2022-08-21T13:34:19;7.15;;;3.95;;
70920;SDS011;58572;48.110;19.838;2022-08-21T13:36:51;8.93;;;4.57;;
70920;SDS011;58572;48.110;19.838;2022-08-21T13:39:21;8.98;;;4.22;;
70920;SDS011;58572;48.110;19.838;2022-08-21T13:41:49;10.57;;;4.95;;
70920;SDS011;58572;48.110;19.838;2022-08-21T13:44:19;9.18;;;4.40;;
70920;SDS011;58572;48.110;19.838;2022-08-21T13:46:51;9.25;;;4.60;;
70920;SDS011;58572;48.110;19.838;2022-08-21T13:49:20;8.73;;;4.63;;
70920;SDS011;58572;48.110;19.838;2022-08-21T13:51:54;10.52;;;4.22;;
70920;SDS011;58572;48.110;19.838;2022-08-21T13:54:26;7.97;;;4.00;;
70920;SDS011;58572;48.110;19.838;2022-08-21T13:59:24;7.43;;;3.90;;
70920;SDS011;58572;48.110;19.838;2022-08-21T14:01:54;6.78;;;4.35;;
70920;SDS011;58572;48.110;19.838;2022-08-21T14:04:25;8.20;;;3.95;;
70920;SDS011;58572;48.110;19.838;2022-08-21T14:06:59;11.65;;;4.57;;
70920;SDS011;58572;48.110;19.838;2022-08-21T14:09:30;10.05;;;4.85;;
70920;SDS011;58572;48.110;19.838;2022-08-21T14:12:01;7.50;;;3.58;;
70920;SDS011;58572;48.110;19.838;2022-08-21T14:14:37;14.50;;;7.00;;
70920;SDS011;58572;48.110;19.838;2022-08-21T14:17:07;9.43;;;4.30;;
70920;SDS011;58572;48.110;19.838;2022-08-21T14:19:40;9.00;;;4.20;;
70920;SDS011;58572;48.110;19.838;2022-08-21T14:25:03;12.50;;;4.03;;
70920;SDS011;58572;48.110;19.838;2022-08-21T14:27:33;8.90;;;4.05;;
70920;SDS011;58572;48.110;19.838;2022-08-21T14:30:03;8.25;;;3.50;;
70920;SDS011;58572;48.110;19.838;2022-08-21T14:32:36;6.93;;;3.70;;
70920;SDS011;58572;48.110;19.838;2022-08-21T14:35:06;10.18;;;4.47;;
70920;SDS011;58572;48.110;19.838;2022-08-21T14:37:36;9.02;;;3.88;;
70920;SDS011;58572;48.110;19.838;2022-08-21T14:40:04;11.00;;;3.53;;
70920;SDS011;58572;48.110;19.838;2022-08-21T14:42:32;9.35;;;3.95;;
70920;SDS011;58572;48.110;19.838;2022-08-21T14:45:00;17.00;;;5.72;;
70920;SDS011;58572;48.110;19.838;2022-08-21T14:47:34;14.27;;;5.28;;
70920;SDS011;58572;48.110;19.838;2022-08-21T14:50:02;12.32;;;3.95;;
70920;SDS011;58572;48.110;19.838;2022-08-21T14:52:30;10.25;;;4.88;;
70920;SDS011;58572;48.110;19.838;2022-08-21T14:54:58;14.38;;;5.60;;
70920;SDS011;58572;48.110;19.838;2022-08-21T14:57:27;14.80;;;6.40;;
70920;SDS011;58572;48.110;19.838;2022-08-21T14:59:57;13.40;;;5.95;;
70920;SDS011;58572;48.110;19.838;2022-08-21T15:02:24;11.65;;;4.47;;
70920;SDS011;58572;48.110;19.838;2022-08-21T15:07:18;11.35;;;4.03;;
70920;SDS011;58572;48.110;19.838;2022-08-21T15:09:46;8.00;;;3.67;;
70920;SDS011;58572;48.110;19.838;2022-08-21T15:12:14;8.75;;;3.88;;
70920;SDS011;58572;48.110;19.838;2022-08-21T15:14:41;11.85;;;4.38;;
70920;SDS011;58572;48.110;19.838;2022-08-21T15:17:09;10.40;;;4.07;;
70920;SDS011;58572;48.110;19.838;2022-08-21T15:19:37;10.48;;;4.38;;
70920;SDS011;58572;48.110;19.838;2022-08-21T15:22:05;14.57;;;5.53;;
70920;SDS011;58572;48.110;19.838;2022-08-21T15:24:32;10.77;;;5.57;;
70920;SDS011;58572;48.110;19.838;2022-08-21T15:27:00;11.35;;;5.50;;
70920;SDS011;58572;48.110;19.838;2022-08-21T15:29:31;13.07;;;4.68;;
70920;SDS011;58572;48.110;19.838;2022-08-21T15:31:59;11.80;;;4.75;;
70920;SDS011;58572;48.110;19.838;2022-08-21T15:34:28;8.80;;;3.92;;
70920;SDS011;58572;48.110;19.838;2022-08-21T15:36:57;9.50;;;3.78;;
70920;SDS011;58572;48.110;19.838;2022-08-21T15:39:25;6.57;;;3.17;;
70920;SDS011;58572;48.110;19.838;2022-08-21T15:41:53;8.05;;;3.33;;
70920;SDS011;58572;48.110;19.838;2022-08-21T15:44:20;10.15;;;3.55;;
70920;SDS011;58572;48.110;19.838;2022-08-21T15:46:49;8.80;;;2.95;;
70920;SDS011;58572;48.110;19.838;2022-08-21T15:49:16;19.20;;;5.97;;
70920;SDS011;58572;48.110;19.838;2022-08-21T15:54:10;8.90;;;3.75;;
70920;SDS011;58572;48.110;19.838;2022-08-21T15:56:38;9.85;;;3.45;;
70920;SDS011;58572;48.110;19.838;2022-08-21T15:59:09;11.98;;;4.03;;
70920;SDS011;58572;48.110;19.838;2022-08-21T16:01:40;8.35;;;3.70;;
70920;SDS011;58572;48.110;19.838;2022-08-21T16:04:09;10.27;;;3.47;;
70920;SDS011;58572;48.110;19.838;2022-08-21T16:06:38;9.15;;;3.60;;
70920;SDS011;58572;48.110;19.838;2022-08-21T16:09:06;10.98;;;4.03;;
70920;SDS011;58572;48.110;19.838;2022-08-21T16:11:33;7.63;;;3.38;;
70920;SDS011;58572;48.110;19.838;2022-08-21T16:16:27;12.93;;;3.17;;
70920;SDS011;58572;48.110;19.838;2022-08-21T16:18:57;8.73;;;3.45;;
70920;SDS011;58572;48.110;19.838;2022-08-21T16:23:53;6.05;;;3.20;;
70920;SDS011;58572;48.110;19.838;2022-08-21T16:26:20;8.50;;;3.50;;
70920;SDS011;58572;48.110;19.838;2022-08-21T16:28:48;8.57;;;2.90;;
70920;SDS011;58572;48.110;19.838;2022-08-21T16:31:19;8.77;;;3.35;;
70920;SDS011;58572;48.110;19.838;2022-08-21T16:33:49;7.50;;;3.28;;
70920;SDS011;58572;48.110;19.838;2022-08-21T16:36:18;9.60;;;3.15;;
70920;SDS011;58572;48.110;19.838;2022-08-21T16:38:48;6.70;;;3.22;;
70920;SDS011;58572;48.110;19.838;2022-08-21T16:41:18;9.38;;;3.28;;
70920;SDS011;58572;48.110;19.838;2022-08-21T16:43:47;5.40;;;2.75;;
70920;SDS011;58572;48.110;19.838;2022-08-21T16:46:16;6.53;;;3.13;;
70920;SDS011;58572;48.110;19.838;2022-08-21T16:48:46;7.93;;;2.78;;
70920;SDS011;58572;48.110;19.838;2022-08-21T16:51:14;7.57;;;2.90;;
70920;SDS011;58572;48.110;19.838;2022-08-21T16:53:42;9.18;;;3.08;;
70920;SDS011;58572;48.110;19.838;2022-08-21T16:56:12;8.63;;;3.55;;
70920;SDS011;58572;48.110;19.838;2022-08-21T16:58:41;8.85;;;3.50;;
70920;SDS011;58572;48.110;19.838;2022-08-21T17:01:10;7.05;;;3.20;;
70920;SDS011;58572;48.110;19.838;2022-08-21T17:03:40;10.13;;;3.35;;
70920;SDS011;58572;48.110;19.838;2022-08-21T17:06:10;8.05;;;3.38;;
70920;SDS011;58572;48.110;19.838;2022-08-21T17:08:38;7.93;;;3.20;;
70920;SDS011;58572;48.110;19.838;2022-08-21T17:11:05;6.82;;;3.55;;
70920;SDS011;58572;48.110;19.838;2022-08-21T17:13:36;10.68;;;3.38;;
70920;SDS011;58572;48.110;19.838;2022-08-21T17:16:04;8.85;;;4.00;;
70920;SDS011;58572;48.110;19.838;2022-08-21T17:18:32;9.15;;;3.45;;
70920;SDS011;58572;48.110;19.838;2022-08-21T17:21:00;8.65;;;3.80;;
70920;SDS011;58572;48.110;19.838;2022-08-21T17:23:27;7.53;;;2.85;;
70920;SDS011;58572;48.110;19.838;2022-08-21T17:25:55;7.63;;;3.13;;
70920;SDS011;58572;48.110;19.838;2022-08-21T17:28:23;6.72;;;2.80;;
70920;SDS011;58572;48.110;19.838;2022-08-21T17:30:55;7.65;;;2.95;;
70920;SDS011;58572;48.110;19.838;2022-08-21T17:33:27;8.63;;;3.22;;
70920;SDS011;58572;48.110;19.838;2022-08-21T17:35:59;11.02;;;2.95;;
70920;SDS011;58572;48.110;19.838;2022-08-21T17:38:28;6.72;;;3.10;;
70920;SDS011;58572;48.110;19.838;2022-08-21T17:40:55;6.75;;;3.22;;
70920;SDS011;58572;48.110;19.838;2022-08-21T17:43:22;12.27;;;3.95;;
70920;SDS011;58572;48.110;19.838;2022-08-21T17:45:50;6.38;;;3.20;;
70920;SDS011;58572;48.110;19.838;2022-08-21T17:48:19;8.73;;;3.53;;
70920;SDS011;58572;48.110;19.838;2022-08-21T17:50:46;10.73;;;3.10;;
70920;SDS011;58572;48.110;19.838;2022-08-21T17:53:13;7.97;;;3.00;;
70920;SDS011;58572;48.110;19.838;2022-08-21T17:55:40;10.18;;;2.85;;
70920;SDS011;58572;48.110;19.838;2022-08-21T17:58:08;8.45;;;3.22;;
70920;SDS011;58572;48.110;19.838;2022-08-21T18:00:38;13.35;;;3.45;;
70920;SDS011;58572;48.110;19.838;2022-08-21T18:03:06;6.47;;;2.97;;
70920;SDS011;58572;48.110;19.838;2022-08-21T18:05:40;6.93;;;3.13;;
70920;SDS011;58572;48.110;19.838;2022-08-21T18:08:08;7.97;;;3.10;;
70920;SDS011;58572;48.110;19.838;2022-08-21T18:10:36;7.05;;;3.25;;
70920;SDS011;58572;48.110;19.838;2022-08-21T18:13:06;6.30;;;3.20;;
70920;SDS011;58572;48.110;19.838;2022-08-21T18:15:36;7.35;;;2.97;;
70920;SDS011;58572;48.110;19.838;2022-08-21T18:18:03;7.63;;;2.63;;
70920;SDS011;58572;48.110;19.838;2022-08-21T18:20:32;9.48;;;2.88;;
70920;SDS011;58572;48.110;19.838;2022-08-21T18:23:01;7.68;;;3.45;;
70920;SDS011;58572;48.110;19.838;2022-08-21T18:25:28;8.25;;;3.20;;
70920;SDS011;58572;48.110;19.838;2022-08-21T18:27:55;9.10;;;3.10;;
70920;SDS011;58572;48.110;19.838;2022-08-21T18:30:32;8.38;;;3.30;;
70920;SDS011;58572;48.110;19.838;2022-08-21T18:33:05;6.82;;;2.97;;
70920;SDS011;58572;48.110;19.838;2022-08-21T18:35:34;8.40;;;3.28;;
70920;SDS011;58572;48.110;19.838;2022-08-21T18:38:03;5.68;;;3.50;;
70920;SDS011;58572;48.110;19.838;2022-08-21T18:40:30;8.43;;;3.20;;
70920;SDS011;58572;48.110;19.838;2022-08-21T18:42:59;8.95;;;3.47;;
70920;SDS011;58572;48.110;19.838;2022-08-21T18:45:28;12.00;;;4.22;;
70920;SDS011;58572;48.110;19.838;2022-08-21T18:47:55;7.90;;;3.20;;
70920;SDS011;58572;48.110;19.838;2022-08-21T18:50:24;10.18;;;3.15;;
70920;SDS011;58572;48.110;19.838;2022-08-21T18:52:53;6.80;;;3.22;;
70920;SDS011;58572;48.110;19.838;2022-08-21T18:55:22;8.25;;;3.13;;
70920;SDS011;58572;48.110;19.838;2022-08-21T18:57:50;8.63;;;2.80;;
70920;SDS011;58572;48.110;19.838;2022-08-21T19:00:18;6.10;;;2.72;;
70920;SDS011;58572;48.110;19.838;2022-08-21T19:02:48;6.68;;;2.72;;
70920;SDS011;58572;48.110;19.838;2022-08-21T19:05:16;7.90;;;2.78;;
70920;SDS011;58572;48.110;19.838;2022-08-21T19:07:44;9.90;;;3.22;;
70920;SDS011;58572;48.110;19.838;2022-08-21T19:12:41;9.00;;;3.10;;
70920;SDS011;58572;48.110;19.838;2022-08-21T19:15:09;6.22;;;2.63;;
70920;SDS011;58572;48.110;19.838;2022-08-21T19:17:39;5.35;;;2.85;;
70920;SDS011;58572;48.110;19.838;2022-08-21T19:20:12;6.18;;;2.63;;
70920;SDS011;58572;48.110;19.838;2022-08-21T19:22:46;6.47;;;3.00;;
70920;SDS011;58572;48.110;19.838;2022-08-21T19:25:14;7.60;;;2.75;;
70920;SDS011;58572;48.110;19.838;2022-08-21T19:27:43;8.07;;;2.78;;
70920;SDS011;58572;48.110;19.838;2022-08-21T19:30:10;7.18;;;2.38;;
70920;SDS011;58572;48.110;19.838;2022-08-21T19:32:38;6.40;;;2.92;;
70920;SDS011;58572;48.110;19.838;2022-08-21T19:35:09;5.90;;;2.55;;
70920;SDS011;58572;48.110;19.838;2022-08-21T19:37:39;11.15;;;4.03;;
70920;SDS011;58572;48.110;19.838;2022-08-21T19:40:07;10.05;;;3.40;;
70920;SDS011;58572;48.110;19.838;2022-08-21T19:42:36;9.48;;;3.53;;
70920;SDS011;58572;48.110;19.838;2022-08-21T19:45:05;9.52;;;3.13;;
70920;SDS011;58572;48.110;19.838;2022-08-21T19:47:33;12.65;;;3.50;;
70920;SDS011;58572;48.110;19.838;2022-08-21T19:50:03;14.60;;;4.00;;
70920;SDS011;58572;48.110;19.838;2022-08-21T19:52:32;16.80;;;4.10;;
70920;SDS011;58572;48.110;19.838;2022-08-21T19:54:59;39.65;;;4.90;;
70920;SDS011;58572;48.110;19.838;2022-08-21T19:57:26;28.08;;;5.20;;
70920;SDS011;58572;48.110;19.838;2022-08-21T19:59:53;35.75;;;4.80;;
70920;SDS011;58572;48.110;19.838;2022-08-21T20:02:22;24.05;;;4.97;;
70920;SDS011;58572;48.110;19.838;2022-08-21T20:04:49;34.53;;;4.97;;
70920;SDS011;58572;48.110;19.838;2022-08-21T20:07:16;32.85;;;5.25;;
70920;SDS011;58572;48.110;19.838;2022-08-21T20:09:43;21.33;;;3.70;;
70920;SDS011;58572;48.110;19.838;2022-08-21T20:12:11;22.95;;;3.63;;
70920;SDS011;58572;48.110;19.838;2022-08-21T20:14:41;15.35;;;2.90;;
70920;SDS011;58572;48.110;19.838;2022-08-21T20:17:11;11.88;;;3.00;;
70920;SDS011;58572;48.110;19.838;2022-08-21T20:19:42;10.75;;;3.25;;
70920;SDS011;58572;48.110;19.838;2022-08-21T20:22:10;18.42;;;3.05;;
70920;SDS011;58572;48.110;19.838;2022-08-21T20:24:38;11.15;;;3.03;;
70920;SDS011;58572;48.110;19.838;2022-08-21T20:27:06;13.82;;;2.78;;
70920;SDS011;58572;48.110;19.838;2022-08-21T20:29:36;10.57;;;2.90;;
70920;SDS011;58572;48.110;19.838;2022-08-21T20:32:04;14.07;;;3.05;;
70920;SDS011;58572;48.110;19.838;2022-08-21T20:34:33;13.27;;;2.63;;
70920;SDS011;58572;48.110;19.838;2022-08-21T20:37:02;10.35;;;2.42;;
70920;SDS011;58572;48.110;19.838;2022-08-21T20:39:29;9.48;;;2.75;;
70920;SDS011;58572;48.110;19.838;2022-08-21T20:41:56;14.20;;;2.22;;
70920;SDS011;58572;48.110;19.838;2022-08-21T20:44:23;8.63;;;2.47;;
70920;SDS011;58572;48.110;19.838;2022-08-21T20:46:56;8.57;;;2.40;;
70920;SDS011;58572;48.110;19.838;2022-08-21T20:49:28;9.10;;;2.15;;
70920;SDS011;58572;48.110;19.838;2022-08-21T20:51:59;6.97;;;2.55;;
70920;SDS011;58572;48.110;19.838;2022-08-21T20:54:29;9.38;;;2.25;;
70920;SDS011;58572;48.110;19.838;2022-08-21T20:57:03;11.23;;;2.35;;
70920;SDS011;58572;48.110;19.838;2022-08-21T20:59:40;8.82;;;2.30;;
70920;SDS011;58572;48.110;19.838;2022-08-21T21:02:19;8.23;;;2.38;;
70920;SDS011;58572;48.110;19.838;2022-08-21T21:05:02;6.40;;;2.17;;
70920;SDS011;58572;48.110;19.838;2022-08-21T21:07:36;7.75;;;2.67;;
70920;SDS011;58572;48.110;19.838;2022-08-21T21:10:09;6.57;;;2.42;;
70920;SDS011;58572;48.110;19.838;2022-08-21T21:12:43;5.80;;;2.35;;
70920;SDS011;58572;48.110;19.838;2022-08-21T21:15:16;8.82;;;2.60;;
70920;SDS011;58572;48.110;19.838;2022-08-21T21:17:54;7.80;;;2.70;;
70920;SDS011;58572;48.110;19.838;2022-08-21T21:20:28;6.53;;;2.45;;
70920;SDS011;58572;48.110;19.838;2022-08-21T21:23:05;5.43;;;2.70;;
70920;SDS011;58572;48.110;19.838;2022-08-21T21:25:40;7.28;;;3.22;;
70920;SDS011;58572;48.110;19.838;2022-08-21T21:28:14;9.18;;;3.03;;
70920;SDS011;58572;48.110;19.838;2022-08-21T21:30:47;9.20;;;3.30;;
70920;SDS011;58572;48.110;19.838;2022-08-21T21:35:46;11.48;;;3.40;;
70920;SDS011;58572;48.110;19.838;2022-08-21T21:38:18;5.68;;;2.85;;
70920;SDS011;58572;48.110;19.838;2022-08-21T21:40:52;9.07;;;3.00;;
70920;SDS011;58572;48.110;19.838;2022-08-21T21:43:31;7.88;;;3.00;;
70920;SDS011;58572;48.110;19.838;2022-08-21T21:46:13;8.60;;;4.00;;
70920;SDS011;58572;48.110;19.838;2022-08-21T21:48:53;5.30;;;2.88;;
70920;SDS011;58572;48.110;19.838;2022-08-21T21:51:35;9.00;;;3.63;;
70920;SDS011;58572;48.110;19.838;2022-08-21T21:54:14;8.73;;;3.90;;
70920;SDS011;58572;48.110;19.838;2022-08-21T21:56:56;9.25;;;4.35;;
70920;SDS011;58572;48.110;19.838;2022-08-21T21:59:39;13.55;;;3.55;;
70920;SDS011;58572;48.110;19.838;2022-08-21T22:02:14;7.53;;;4.28;;
70920;SDS011;58572;48.110;19.838;2022-08-21T22:04:51;10.10;;;4.45;;
70920;SDS011;58572;48.110;19.838;2022-08-21T22:07:27;8.73;;;4.97;;
70920;SDS011;58572;48.110;19.838;2022-08-21T22:10:03;8.20;;;4.30;;
70920;SDS011;58572;48.110;19.838;2022-08-21T22:12:44;15.68;;;4.18;;
70920;SDS011;58572;48.110;19.838;2022-08-21T22:15:16;10.30;;;4.10;;
70920;SDS011;58572;48.110;19.838;2022-08-21T22:17:45;8.95;;;4.38;;
70920;SDS011;58572;48.110;19.838;2022-08-21T22:20:18;16.58;;;4.30;;
70920;SDS011;58572;48.110;19.838;2022-08-21T22:22:53;11.40;;;4.25;;
70920;SDS011;58572;48.110;19.838;2022-08-21T22:25:22;8.27;;;4.40;;
70920;SDS011;58572;48.110;19.838;2022-08-21T22:27:59;12.27;;;4.45;;
70920;SDS011;58572;48.110;19.838;2022-08-21T22:30:37;14.48;;;3.72;;
70920;SDS011;58572;48.110;19.838;2022-08-21T22:33:12;12.13;;;3.35;;
70920;SDS011;58572;48.110;19.838;2022-08-21T22:35:43;7.40;;;2.97;;
70920;SDS011;58572;48.110;19.838;2022-08-21T22:38:14;8.88;;;3.08;;
70920;SDS011;58572;48.110;19.838;2022-08-21T22:40:47;8.13;;;3.42;;
70920;SDS011;58572;48.110;19.838;2022-08-21T22:43:20;10.57;;;3.22;;
70920;SDS011;58572;48.110;19.838;2022-08-21T22:45:53;5.57;;;2.80;;
70920;SDS011;58572;48.110;19.838;2022-08-21T22:48:24;10.75;;;3.28;;
70920;SDS011;58572;48.110;19.838;2022-08-21T22:50:56;9.48;;;3.08;;
70920;SDS011;58572;48.110;19.838;2022-08-21T22:53:29;9.07;;;3.05;;
70920;SDS011;58572;48.110;19.838;2022-08-21T22:56:00;7.30;;;3.20;;
70920;SDS011;58572;48.110;19.838;2022-08-21T22:58:31;10.55;;;3.33;;
70920;SDS011;58572;48.110;19.838;2022-08-21T23:01:03;7.35;;;3.03;;
70920;SDS011;58572;48.110;19.838;2022-08-21T23:03:33;7.45;;;3.15;;
70920;SDS011;58572;48.110;19.838;2022-08-21T23:06:20;9.90;;;3.20;;
70920;SDS011;58572;48.110;19.838;2022-08-21T23:08:50;6.55;;;3.03;;
70920;SDS011;58572;48.110;19.838;2022-08-21T23:11:18;7.20;;;3.83;;
70920;SDS011;58572;48.110;19.838;2022-08-21T23:13:49;6.97;;;3.45;;
70920;SDS011;58572;48.110;19.838;2022-08-21T23:16:24;5.53;;;3.20;;
70920;SDS011;58572;48.110;19.838;2022-08-21T23:19:05;7.80;;;3.50;;
70920;SDS011;58572;48.110;19.838;2022-08-21T23:21:38;7.50;;;3.75;;
70920;SDS011;58572;48.110;19.838;2022-08-21T23:24:18;7.00;;;3.63;;
70920;SDS011;58572;48.110;19.838;2022-08-21T23:27:07;9.65;;;3.80;;
70920;SDS011;58572;48.110;19.838;2022-08-21T23:29:48;11.93;;;3.60;;
70920;SDS011;58572;48.110;19.838;2022-08-21T23:32:29;9.15;;;3.20;;
70920;SDS011;58572;48.110;19.838;2022-08-21T23:35:09;6.70;;;3.50;;
70920;SDS011;58572;48.110;19.838;2022-08-21T23:37:41;6.20;;;3.65;;
70920;SDS011;58572;48.110;19.838;2022-08-21T23:40:20;8.50;;;3.20;;
70920;SDS011;58572;48.110;19.838;2022-08-21T23:43:02;7.07;;;3.35;;
70920;SDS011;58572;48.110;19.838;2022-08-21T23:45:43;7.93;;;3.42;;
70920;SDS011;58572;48.110;19.838;2022-08-21T23:48:30;6.60;;;3.30;;
70920;SDS011;58572;48.110;19.838;2022-08-21T23:51:07;8.10;;;3.72;;
70920;SDS011;58572;48.110;19.838;2022-08-21T23:53:41;8.15;;;3.40;;
70920;SDS011;58572;48.110;19.838;2022-08-21T23:56:19;6.05;;;3.03;;
70920;SDS011;58572;48.110;19.838;2022-08-21T23:58:59;7.10;;;3.58;;
